sensor_id;sensor_type;location;lat;lon;timestamp;pressure;altitude;pressure_sealevel;temperature;humidity
53916;BME280;39827;49.652;18.770;2023-06-05T10:37:17;73172.81;;;-149.71;45.00
53916;BME280;39827;49.652;18.770;2023-06-05T10:39:49;73126.59;;;-149.71;43.77
53916;BME280;39827;49.652;18.770;2023-06-05T10:42:25;73086.44;;;-149.71;43.67
53916;BME280;39827;49.652;18.770;2023-06-05T10:44:51;73066.34;;;-149.71;42.59
53916;BME280;39827;49.652;18.770;2023-06-05T10:47:48;73038.22;;;-149.71;43.29
53916;BME280;39827;49.652;18.770;2023-06-05T10:50:19;73004.09;;;-149.71;41.33
53916;BME280;39827;49.652;18.770;2023-06-05T10:52:46;72957.88;;;-149.71;40.80
53916;BME280;39827;49.652;18.770;2023-06-05T10:55:12;72881.56;;;-149.71;39.16
53916;BME280;39827;49.652;18.770;2023-06-05T10:58:06;72913.69;;;-149.71;39.53
53916;BME280;39827;49.652;18.770;2023-06-05T11:00:33;72988.03;;;-149.71;40.73
53916;BME280;39827;49.652;18.770;2023-06-05T11:03:00;72992.03;;;-149.71;39.92
53916;BME280;39827;49.652;18.770;2023-06-05T11:05:26;72951.88;;;-149.71;40.60
53916;BME280;39827;49.652;18.770;2023-06-05T11:10:35;72988.03;;;-149.71;40.57
53916;BME280;39827;49.652;18.770;2023-06-05T11:13:00;72988.03;;;-149.71;41.52
53916;BME280;39827;49.652;18.770;2023-06-05T11:15:38;73002.06;;;-149.71;42.14
53916;BME280;39827;49.652;18.770;2023-06-05T11:18:29;73004.09;;;-149.71;42.50
53916;BME280;39827;49.652;18.770;2023-06-05T11:20:55;73036.22;;;-149.71;42.04
53916;BME280;39827;49.652;18.770;2023-06-05T11:23:21;73066.34;;;-149.71;42.33
53916;BME280;39827;49.652;18.770;2023-06-05T11:25:48;73080.41;;;-149.71;42.19
53916;BME280;39827;49.652;18.770;2023-06-05T11:28:14;73092.47;;;-149.71;42.75
53916;BME280;39827;49.652;18.770;2023-06-05T11:30:59;73128.63;;;-149.71;42.92
53916;BME280;39827;49.652;18.770;2023-06-05T11:33:28;73156.72;;;-149.71;43.55
53916;BME280;39827;49.652;18.770;2023-06-05T11:36:00;73174.81;;;-149.71;44.10
53916;BME280;39827;49.652;18.770;2023-06-05T11:38:25;73188.88;;;-149.71;43.98
53916;BME280;39827;49.652;18.770;2023-06-05T11:40:51;73178.84;;;-149.71;45.02
53916;BME280;39827;49.652;18.770;2023-06-05T11:43:16;73190.88;;;-149.71;44.09
53916;BME280;39827;49.652;18.770;2023-06-05T11:45:49;73200.94;;;-149.71;45.08
53916;BME280;39827;49.652;18.770;2023-06-05T11:48:16;73227.03;;;-149.71;45.23
53916;BME280;39827;49.652;18.770;2023-06-05T11:50:58;73219.00;;;-149.71;45.54
53916;BME280;39827;49.652;18.770;2023-06-05T11:53:25;73223.03;;;-149.71;45.15
53916;BME280;39827;49.652;18.770;2023-06-05T11:55:52;73208.97;;;-149.71;44.79
53916;BME280;39827;49.652;18.770;2023-06-05T11:58:25;73227.03;;;-149.71;44.66
53916;BME280;39827;49.652;18.770;2023-06-05T12:00:52;73219.00;;;-149.71;45.14
53916;BME280;39827;49.652;18.770;2023-06-05T12:03:28;73204.94;;;-149.71;45.43
53916;BME280;39827;49.652;18.770;2023-06-05T12:05:53;73206.94;;;-149.71;45.66
53916;BME280;39827;49.652;18.770;2023-06-05T12:08:30;73168.78;;;-149.71;45.59
53916;BME280;39827;49.652;18.770;2023-06-05T12:10:58;73152.72;;;-149.71;45.89
53916;BME280;39827;49.652;18.770;2023-06-05T12:13:44;73156.72;;;-149.71;43.37
53916;BME280;39827;49.652;18.770;2023-06-05T12:16:10;73136.66;;;-149.71;43.26
53916;BME280;39827;49.652;18.770;2023-06-05T12:18:35;73114.56;;;-149.71;43.78
53916;BME280;39827;49.652;18.770;2023-06-05T12:21:01;73086.44;;;-149.71;44.54
53916;BME280;39827;49.652;18.770;2023-06-05T12:23:30;73066.34;;;-149.71;43.28
53916;BME280;39827;49.652;18.770;2023-06-05T12:26:00;73038.22;;;-149.71;43.77
53916;BME280;39827;49.652;18.770;2023-06-05T12:28:27;73016.13;;;-149.71;43.03
53916;BME280;39827;49.652;18.770;2023-06-05T12:30:53;73014.13;;;-149.71;43.33
53916;BME280;39827;49.652;18.770;2023-06-05T12:33:19;73010.13;;;-149.71;43.25
53916;BME280;39827;49.652;18.770;2023-06-05T12:35:45;73006.09;;;-149.71;43.83
53916;BME280;39827;49.652;18.770;2023-06-05T12:38:11;72986.00;;;-149.71;42.99
53916;BME280;39827;49.652;18.770;2023-06-05T12:40:36;72973.97;;;-149.71;41.94
53916;BME280;39827;49.652;18.770;2023-06-05T12:43:02;72992.03;;;-149.71;43.64
53916;BME280;39827;49.652;18.770;2023-06-05T12:45:27;73016.13;;;-149.71;43.56
53916;BME280;39827;49.652;18.770;2023-06-05T12:47:54;73022.16;;;-149.71;43.62
53916;BME280;39827;49.652;18.770;2023-06-05T12:50:19;73018.16;;;-149.71;42.31
53916;BME280;39827;49.652;18.770;2023-06-05T12:52:46;73024.16;;;-149.71;43.45
53916;BME280;39827;49.652;18.770;2023-06-05T12:55:11;73038.22;;;-149.71;44.65
53916;BME280;39827;49.652;18.770;2023-06-05T12:57:37;73062.34;;;-149.71;45.60
53916;BME280;39827;49.652;18.770;2023-06-05T13:00:04;73064.34;;;-149.71;46.22
53916;BME280;39827;49.652;18.770;2023-06-05T13:02:44;73048.28;;;-149.71;46.26
53916;BME280;39827;49.652;18.770;2023-06-05T13:05:10;73036.22;;;-149.71;46.53
53916;BME280;39827;49.652;18.770;2023-06-05T13:07:37;73044.25;;;-149.71;46.47
53916;BME280;39827;49.652;18.770;2023-06-05T13:10:04;73050.28;;;-149.71;45.75
53916;BME280;39827;49.652;18.770;2023-06-05T13:12:30;73062.34;;;-149.71;44.14
53916;BME280;39827;49.652;18.770;2023-06-05T13:14:56;73072.38;;;-149.71;45.04
53916;BME280;39827;49.652;18.770;2023-06-05T13:17:21;73072.38;;;-149.71;45.14
53916;BME280;39827;49.652;18.770;2023-06-05T13:19:48;73072.38;;;-149.71;45.32
53916;BME280;39827;49.652;18.770;2023-06-05T13:22:14;73076.38;;;-149.71;44.86
53916;BME280;39827;49.652;18.770;2023-06-05T13:24:40;73088.44;;;-149.71;44.99
53916;BME280;39827;49.652;18.770;2023-06-05T13:27:06;73082.41;;;-149.71;43.96
53916;BME280;39827;49.652;18.770;2023-06-05T13:29:31;73088.44;;;-149.71;44.96
53916;BME280;39827;49.652;18.770;2023-06-05T13:31:56;73102.50;;;-149.71;45.21
53916;BME280;39827;49.652;18.770;2023-06-05T13:34:22;73102.50;;;-149.71;43.97
53916;BME280;39827;49.652;18.770;2023-06-05T13:36:47;73118.56;;;-149.71;43.78
53916;BME280;39827;49.652;18.770;2023-06-05T13:39:14;73114.56;;;-149.71;42.49
53916;BME280;39827;49.652;18.770;2023-06-05T13:41:40;73126.59;;;-149.71;42.79
53916;BME280;39827;49.652;18.770;2023-06-05T13:44:05;73132.63;;;-149.71;44.30
53916;BME280;39827;49.652;18.770;2023-06-05T13:46:31;73130.63;;;-149.71;48.22
53916;BME280;39827;49.652;18.770;2023-06-05T13:48:56;73132.63;;;-149.71;44.02
53916;BME280;39827;49.652;18.770;2023-06-05T13:51:25;73122.59;;;-149.71;46.26
53916;BME280;39827;49.652;18.770;2023-06-05T13:53:51;73126.59;;;-149.71;46.23
53916;BME280;39827;49.652;18.770;2023-06-05T13:56:16;73134.63;;;-149.71;46.64
53916;BME280;39827;49.652;18.770;2023-06-05T13:58:41;73120.59;;;-149.71;46.53
53916;BME280;39827;49.652;18.770;2023-06-05T14:01:07;73128.63;;;-149.71;49.43
53916;BME280;39827;49.652;18.770;2023-06-05T14:03:33;73126.59;;;-149.71;49.29
53916;BME280;39827;49.652;18.770;2023-06-05T14:05:58;73120.59;;;-149.71;50.69
53916;BME280;39827;49.652;18.770;2023-06-05T14:08:24;73120.59;;;-149.71;50.30
53916;BME280;39827;49.652;18.770;2023-06-05T14:10:49;73112.53;;;-149.71;51.54
53916;BME280;39827;49.652;18.770;2023-06-05T14:13:14;73102.50;;;-149.71;49.31
53916;BME280;39827;49.652;18.770;2023-06-05T14:15:40;73094.47;;;-149.71;50.51
53916;BME280;39827;49.652;18.770;2023-06-05T14:18:06;73098.50;;;-149.71;51.14
53916;BME280;39827;49.652;18.770;2023-06-05T14:20:33;73110.53;;;-149.71;51.33
53916;BME280;39827;49.652;18.770;2023-06-05T14:22:59;73114.56;;;-149.71;49.51
53916;BME280;39827;49.652;18.770;2023-06-05T14:25:25;73098.50;;;-149.71;50.66
53916;BME280;39827;49.652;18.770;2023-06-05T14:27:54;73094.47;;;-149.71;50.19
53916;BME280;39827;49.652;18.770;2023-06-05T14:30:20;73084.44;;;-149.71;50.92
53916;BME280;39827;49.652;18.770;2023-06-05T14:32:46;73090.44;;;-149.71;47.07
53916;BME280;39827;49.652;18.770;2023-06-05T14:35:11;73060.31;;;-149.71;47.62
53916;BME280;39827;49.652;18.770;2023-06-05T14:37:37;73044.25;;;-149.71;47.96
53916;BME280;39827;49.652;18.770;2023-06-05T14:40:03;73038.22;;;-149.71;46.85
53916;BME280;39827;49.652;18.770;2023-06-05T14:42:29;73042.25;;;-149.71;47.90
53916;BME280;39827;49.652;18.770;2023-06-05T14:44:55;73026.19;;;-149.71;49.19
53916;BME280;39827;49.652;18.770;2023-06-05T14:47:20;73028.19;;;-149.71;46.42
53916;BME280;39827;49.652;18.770;2023-06-05T14:49:47;72998.06;;;-149.71;44.05
53916;BME280;39827;49.652;18.770;2023-06-05T14:52:13;72992.03;;;-149.71;43.29
53916;BME280;39827;49.652;18.770;2023-06-05T14:54:38;72998.06;;;-149.71;44.16
53916;BME280;39827;49.652;18.770;2023-06-05T14:57:04;72986.00;;;-149.71;43.96
53916;BME280;39827;49.652;18.770;2023-06-05T14:59:30;72992.03;;;-149.71;43.31
53916;BME280;39827;49.652;18.770;2023-06-05T15:01:56;73000.06;;;-149.71;45.99
53916;BME280;39827;49.652;18.770;2023-06-05T15:04:21;72990.03;;;-149.71;46.19
53916;BME280;39827;49.652;18.770;2023-06-05T15:06:46;73002.06;;;-149.71;47.33
53916;BME280;39827;49.652;18.770;2023-06-05T15:09:16;73000.06;;;-149.71;46.85
53916;BME280;39827;49.652;18.770;2023-06-05T15:11:41;73036.22;;;-149.71;46.91
53916;BME280;39827;49.652;18.770;2023-06-05T15:14:07;73022.16;;;-149.71;48.77
53916;BME280;39827;49.652;18.770;2023-06-05T15:16:32;73034.22;;;-149.71;48.01
53916;BME280;39827;49.652;18.770;2023-06-05T15:18:57;73038.22;;;-149.71;47.32
53916;BME280;39827;49.652;18.770;2023-06-05T15:21:23;73038.22;;;-149.71;47.49
53916;BME280;39827;49.652;18.770;2023-06-05T15:23:48;73038.22;;;-149.71;47.09
53916;BME280;39827;49.652;18.770;2023-06-05T15:26:14;73072.38;;;-149.71;51.75
53916;BME280;39827;49.652;18.770;2023-06-05T15:28:39;73068.34;;;-149.71;51.97
53916;BME280;39827;49.652;18.770;2023-06-05T15:31:04;73086.44;;;-149.71;52.05
53916;BME280;39827;49.652;18.770;2023-06-05T15:33:32;73102.50;;;-149.71;54.11
53916;BME280;39827;49.652;18.770;2023-06-05T15:35:57;73106.53;;;-149.71;52.86
53916;BME280;39827;49.652;18.770;2023-06-05T15:38:24;73114.56;;;-149.71;52.80
53916;BME280;39827;49.652;18.770;2023-06-05T15:40:49;73098.50;;;-149.71;52.93
53916;BME280;39827;49.652;18.770;2023-06-05T15:43:15;73110.53;;;-149.71;55.56
53916;BME280;39827;49.652;18.770;2023-06-05T15:45:42;73126.59;;;-149.71;57.24
53916;BME280;39827;49.652;18.770;2023-06-05T15:48:08;73126.59;;;-149.71;56.72
53916;BME280;39827;49.652;18.770;2023-06-05T15:50:34;73134.63;;;-149.71;57.82
53916;BME280;39827;49.652;18.770;2023-06-05T15:53:00;73140.66;;;-149.71;58.25
53916;BME280;39827;49.652;18.770;2023-06-05T15:55:25;73156.72;;;-149.71;58.99
53916;BME280;39827;49.652;18.770;2023-06-05T15:57:51;73156.72;;;-149.71;58.96
53916;BME280;39827;49.652;18.770;2023-06-05T16:00:18;73164.78;;;-149.71;58.59
53916;BME280;39827;49.652;18.770;2023-06-05T16:02:44;73166.78;;;-149.71;59.02
53916;BME280;39827;49.652;18.770;2023-06-05T16:05:11;73174.81;;;-149.71;59.73
53916;BME280;39827;49.652;18.770;2023-06-05T16:07:36;73166.78;;;-149.71;60.02
53916;BME280;39827;49.652;18.770;2023-06-05T16:10:02;73170.78;;;-149.71;60.72
53916;BME280;39827;49.652;18.770;2023-06-05T16:12:28;73166.78;;;-149.71;62.28
53916;BME280;39827;49.652;18.770;2023-06-05T16:14:53;73168.78;;;-149.71;62.88
53916;BME280;39827;49.652;18.770;2023-06-05T16:17:20;73166.78;;;-149.71;62.34
53916;BME280;39827;49.652;18.770;2023-06-05T16:19:45;73168.78;;;-149.71;62.88
53916;BME280;39827;49.652;18.770;2023-06-05T16:22:11;73174.81;;;-149.71;62.23
53916;BME280;39827;49.652;18.770;2023-06-05T16:24:37;73186.88;;;-149.71;62.55
53916;BME280;39827;49.652;18.770;2023-06-05T16:27:03;73196.91;;;-149.71;61.42
53916;BME280;39827;49.652;18.770;2023-06-05T16:29:29;73194.91;;;-149.71;62.66
53916;BME280;39827;49.652;18.770;2023-06-05T16:31:55;73194.91;;;-149.71;62.83
53916;BME280;39827;49.652;18.770;2023-06-05T16:34:20;73206.94;;;-149.71;62.48
53916;BME280;39827;49.652;18.770;2023-06-05T16:36:47;73215.00;;;-149.71;62.74
53916;BME280;39827;49.652;18.770;2023-06-05T16:39:14;73212.97;;;-149.71;62.71
53916;BME280;39827;49.652;18.770;2023-06-05T16:41:45;73219.00;;;-149.71;63.68
53916;BME280;39827;49.652;18.770;2023-06-05T16:44:10;73227.03;;;-149.71;62.97
53916;BME280;39827;49.652;18.770;2023-06-05T16:46:38;73245.13;;;-149.71;63.47
53916;BME280;39827;49.652;18.770;2023-06-05T16:49:04;73237.09;;;-149.71;64.13
53916;BME280;39827;49.652;18.770;2023-06-05T16:51:29;73239.09;;;-149.71;64.77
53916;BME280;39827;49.652;18.770;2023-06-05T16:53:55;73251.13;;;-149.71;65.15
53916;BME280;39827;49.652;18.770;2023-06-05T16:56:20;73261.19;;;-149.71;66.42
53916;BME280;39827;49.652;18.770;2023-06-05T16:58:46;73271.22;;;-149.71;67.32
53916;BME280;39827;49.652;18.770;2023-06-05T17:01:11;73275.25;;;-149.71;67.66
53916;BME280;39827;49.652;18.770;2023-06-05T17:03:37;73263.19;;;-149.71;67.11
53916;BME280;39827;49.652;18.770;2023-06-05T17:06:03;73273.22;;;-149.71;67.05
53916;BME280;39827;49.652;18.770;2023-06-05T17:08:29;73281.28;;;-149.71;66.38
53916;BME280;39827;49.652;18.770;2023-06-05T17:10:54;73287.28;;;-149.71;66.17
53916;BME280;39827;49.652;18.770;2023-06-05T17:13:20;73293.31;;;-149.71;66.73
53916;BME280;39827;49.652;18.770;2023-06-05T17:15:46;73303.38;;;-149.71;67.21
53916;BME280;39827;49.652;18.770;2023-06-05T17:18:11;73323.44;;;-149.71;67.64
53916;BME280;39827;49.652;18.770;2023-06-05T17:20:37;73323.44;;;-149.71;67.86
53916;BME280;39827;49.652;18.770;2023-06-05T17:23:02;73325.47;;;-149.71;68.95
53916;BME280;39827;49.652;18.770;2023-06-05T17:25:28;73349.56;;;-149.71;69.40
53916;BME280;39827;49.652;18.770;2023-06-05T17:27:54;73345.53;;;-149.71;68.81
53916;BME280;39827;49.652;18.770;2023-06-05T17:30:20;73339.53;;;-149.71;68.06
53916;BME280;39827;49.652;18.770;2023-06-05T17:32:46;73337.50;;;-149.71;68.23
53916;BME280;39827;49.652;18.770;2023-06-05T17:35:12;73341.53;;;-149.71;68.34
53916;BME280;39827;49.652;18.770;2023-06-05T17:37:38;73349.56;;;-149.71;70.72
53916;BME280;39827;49.652;18.770;2023-06-05T17:40:04;73357.59;;;-149.71;69.33
53916;BME280;39827;49.652;18.770;2023-06-05T17:42:29;73353.59;;;-149.71;68.81
53916;BME280;39827;49.652;18.770;2023-06-05T17:44:55;73375.69;;;-149.71;68.36
53916;BME280;39827;49.652;18.770;2023-06-05T17:47:20;73377.69;;;-149.71;68.08
53916;BME280;39827;49.652;18.770;2023-06-05T17:49:46;73391.75;;;-149.71;68.29
53916;BME280;39827;49.652;18.770;2023-06-05T17:52:11;73409.81;;;-149.71;69.49
53916;BME280;39827;49.652;18.770;2023-06-05T17:54:36;73419.88;;;-149.71;70.07
53916;BME280;39827;49.652;18.770;2023-06-05T17:57:02;73441.97;;;-149.71;70.85
53916;BME280;39827;49.652;18.770;2023-06-05T17:59:28;73450.00;;;-149.71;71.16
53916;BME280;39827;49.652;18.770;2023-06-05T18:01:53;73431.91;;;-149.71;71.61
53916;BME280;39827;49.652;18.770;2023-06-05T18:04:19;73433.94;;;-149.71;70.89
53916;BME280;39827;49.652;18.770;2023-06-05T18:06:45;73429.91;;;-149.71;70.48
53916;BME280;39827;49.652;18.770;2023-06-05T18:09:11;73445.97;;;-149.71;70.03
53916;BME280;39827;49.652;18.770;2023-06-05T18:11:36;73454.00;;;-149.71;69.48
53916;BME280;39827;49.652;18.770;2023-06-05T18:14:02;73452.00;;;-149.71;69.65
53916;BME280;39827;49.652;18.770;2023-06-05T18:16:27;73472.09;;;-149.71;68.20
53916;BME280;39827;49.652;18.770;2023-06-05T18:18:53;73490.19;;;-149.71;67.14
53916;BME280;39827;49.652;18.770;2023-06-05T18:21:18;73472.09;;;-149.71;66.77
53916;BME280;39827;49.652;18.770;2023-06-05T18:23:43;73480.13;;;-149.71;66.96
53916;BME280;39827;49.652;18.770;2023-06-05T18:26:09;73484.16;;;-149.71;66.84
53916;BME280;39827;49.652;18.770;2023-06-05T18:28:35;73492.19;;;-149.71;68.18
53916;BME280;39827;49.652;18.770;2023-06-05T18:31:01;73508.25;;;-149.71;67.18
53916;BME280;39827;49.652;18.770;2023-06-05T18:33:26;73514.28;;;-149.71;67.14
53916;BME280;39827;49.652;18.770;2023-06-05T18:35:54;73510.25;;;-149.71;67.53
53916;BME280;39827;49.652;18.770;2023-06-05T18:38:20;73532.34;;;-149.71;67.80
53916;BME280;39827;49.652;18.770;2023-06-05T18:40:45;73534.38;;;-149.71;68.17
53916;BME280;39827;49.652;18.770;2023-06-05T18:43:11;73546.41;;;-149.71;68.09
53916;BME280;39827;49.652;18.770;2023-06-05T18:45:37;73564.50;;;-149.71;68.72
53916;BME280;39827;49.652;18.770;2023-06-05T18:48:03;73572.53;;;-149.71;69.26
53916;BME280;39827;49.652;18.770;2023-06-05T18:50:29;73574.53;;;-149.71;68.57
53916;BME280;39827;49.652;18.770;2023-06-05T18:52:56;73576.56;;;-149.71;68.56
53916;BME280;39827;49.652;18.770;2023-06-05T18:55:21;73580.56;;;-149.71;68.24
53916;BME280;39827;49.652;18.770;2023-06-05T18:57:46;73592.63;;;-149.71;69.38
53916;BME280;39827;49.652;18.770;2023-06-05T19:00:12;73592.63;;;-149.71;69.04
53916;BME280;39827;49.652;18.770;2023-06-05T19:02:38;73606.69;;;-149.71;69.71
53916;BME280;39827;49.652;18.770;2023-06-05T19:05:04;73600.66;;;-149.71;70.41
53916;BME280;39827;49.652;18.770;2023-06-05T19:07:30;73602.66;;;-149.71;70.57
53916;BME280;39827;49.652;18.770;2023-06-05T19:09:56;73610.69;;;-149.71;71.36
53916;BME280;39827;49.652;18.770;2023-06-05T19:12:21;73612.72;;;-149.71;71.51
53916;BME280;39827;49.652;18.770;2023-06-05T19:14:47;73622.75;;;-149.71;71.61
53916;BME280;39827;49.652;18.770;2023-06-05T19:17:12;73618.72;;;-149.71;71.52
53916;BME280;39827;49.652;18.770;2023-06-05T19:19:37;73606.69;;;-149.71;71.18
53916;BME280;39827;49.652;18.770;2023-06-05T19:22:04;73612.72;;;-149.71;71.76
53916;BME280;39827;49.652;18.770;2023-06-05T19:24:29;73602.66;;;-149.71;72.74
53916;BME280;39827;49.652;18.770;2023-06-05T19:26:54;73608.69;;;-149.71;72.14
53916;BME280;39827;49.652;18.770;2023-06-05T19:29:20;73624.75;;;-149.71;72.63
53916;BME280;39827;49.652;18.770;2023-06-05T19:31:45;73632.78;;;-149.71;73.24
53916;BME280;39827;49.652;18.770;2023-06-05T19:34:11;73636.81;;;-149.71;73.36
53916;BME280;39827;49.652;18.770;2023-06-05T19:36:38;73636.81;;;-149.71;73.17
53916;BME280;39827;49.652;18.770;2023-06-05T19:39:03;73632.78;;;-149.71;72.96
53916;BME280;39827;49.652;18.770;2023-06-05T19:41:28;73632.78;;;-149.71;73.14
53916;BME280;39827;49.652;18.770;2023-06-05T19:43:54;73630.78;;;-149.71;73.87
53916;BME280;39827;49.652;18.770;2023-06-05T19:46:20;73622.75;;;-149.71;73.51
53916;BME280;39827;49.652;18.770;2023-06-05T19:48:48;73636.81;;;-149.71;72.96
53916;BME280;39827;49.652;18.770;2023-06-05T19:51:13;73628.78;;;-149.71;73.49
53916;BME280;39827;49.652;18.770;2023-06-05T19:53:41;73644.84;;;-149.71;73.58
53916;BME280;39827;49.652;18.770;2023-06-05T19:56:08;73642.84;;;-149.71;73.34
53916;BME280;39827;49.652;18.770;2023-06-05T19:58:33;73642.84;;;-149.71;73.55
53916;BME280;39827;49.652;18.770;2023-06-05T20:00:59;73642.84;;;-149.71;73.73
53916;BME280;39827;49.652;18.770;2023-06-05T20:03:24;73644.84;;;-149.71;73.84
53916;BME280;39827;49.652;18.770;2023-06-05T20:05:50;73648.88;;;-149.71;73.66
53916;BME280;39827;49.652;18.770;2023-06-05T20:08:15;73652.88;;;-149.71;73.88
53916;BME280;39827;49.652;18.770;2023-06-05T20:10:41;73638.81;;;-149.71;74.98
53916;BME280;39827;49.652;18.770;2023-06-05T20:13:06;73630.78;;;-149.71;75.33
53916;BME280;39827;49.652;18.770;2023-06-05T20:15:31;73636.81;;;-149.71;74.65
53916;BME280;39827;49.652;18.770;2023-06-05T20:17:57;73644.84;;;-149.71;75.82
53916;BME280;39827;49.652;18.770;2023-06-05T20:20:22;73640.84;;;-149.71;76.08
53916;BME280;39827;49.652;18.770;2023-06-05T20:22:50;73640.84;;;-149.71;76.11
53916;BME280;39827;49.652;18.770;2023-06-05T20:25:15;73636.81;;;-149.71;75.99
53916;BME280;39827;49.652;18.770;2023-06-05T20:27:44;73648.88;;;-149.71;76.17
53916;BME280;39827;49.652;18.770;2023-06-05T20:30:10;73644.84;;;-149.71;74.97
53916;BME280;39827;49.652;18.770;2023-06-05T20:32:36;73640.84;;;-149.71;74.60
53916;BME280;39827;49.652;18.770;2023-06-05T20:35:01;73644.84;;;-149.71;76.14
53916;BME280;39827;49.652;18.770;2023-06-05T20:37:27;73652.88;;;-149.71;77.61
53916;BME280;39827;49.652;18.770;2023-06-05T20:39:56;73640.84;;;-149.71;76.69
53916;BME280;39827;49.652;18.770;2023-06-05T20:42:22;73642.84;;;-149.71;78.19
53916;BME280;39827;49.652;18.770;2023-06-05T20:44:49;73636.81;;;-149.71;78.68
53916;BME280;39827;49.652;18.770;2023-06-05T20:47:15;73646.84;;;-149.71;78.10
53916;BME280;39827;49.652;18.770;2023-06-05T20:49:41;73652.88;;;-149.71;77.88
53916;BME280;39827;49.652;18.770;2023-06-05T20:52:07;73650.88;;;-149.71;78.55
53916;BME280;39827;49.652;18.770;2023-06-05T20:54:37;73654.91;;;-149.71;78.17
53916;BME280;39827;49.652;18.770;2023-06-05T20:57:12;73672.97;;;-149.71;78.10
53916;BME280;39827;49.652;18.770;2023-06-05T20:59:38;73674.97;;;-149.71;78.53
53916;BME280;39827;49.652;18.770;2023-06-05T21:02:03;73679.00;;;-149.71;78.89
53916;BME280;39827;49.652;18.770;2023-06-05T21:04:29;73674.97;;;-149.71;78.95
53916;BME280;39827;49.652;18.770;2023-06-05T21:06:54;73687.03;;;-149.71;80.09
53916;BME280;39827;49.652;18.770;2023-06-05T21:09:20;73685.03;;;-149.71;79.56
53916;BME280;39827;49.652;18.770;2023-06-05T21:11:45;73697.09;;;-149.71;79.82
53916;BME280;39827;49.652;18.770;2023-06-05T21:14:11;73701.09;;;-149.71;80.08
53916;BME280;39827;49.652;18.770;2023-06-05T21:16:36;73709.13;;;-149.71;80.72
53916;BME280;39827;49.652;18.770;2023-06-05T21:19:02;73701.09;;;-149.71;80.67
53916;BME280;39827;49.652;18.770;2023-06-05T21:21:28;73703.09;;;-149.71;80.57
53916;BME280;39827;49.652;18.770;2023-06-05T21:23:53;73717.16;;;-149.71;80.63
53916;BME280;39827;49.652;18.770;2023-06-05T21:26:19;73743.28;;;-149.71;81.68
53916;BME280;39827;49.652;18.770;2023-06-05T21:28:45;73733.25;;;-149.71;81.70
53916;BME280;39827;49.652;18.770;2023-06-05T21:31:10;73733.25;;;-149.71;82.73
53916;BME280;39827;49.652;18.770;2023-06-05T21:33:36;73729.22;;;-149.71;83.38
53916;BME280;39827;49.652;18.770;2023-06-05T21:36:01;73743.28;;;-149.71;84.41
53916;BME280;39827;49.652;18.770;2023-06-05T21:38:27;73759.34;;;-149.71;86.61
53916;BME280;39827;49.652;18.770;2023-06-05T21:40:52;73775.44;;;-149.71;88.25
53916;BME280;39827;49.652;18.770;2023-06-05T21:43:18;73759.34;;;-149.71;88.18
53916;BME280;39827;49.652;18.770;2023-06-05T21:45:43;73767.38;;;-149.71;89.15
53916;BME280;39827;49.652;18.770;2023-06-05T21:48:10;73763.38;;;-149.71;90.28
53916;BME280;39827;49.652;18.770;2023-06-05T21:50:35;73759.34;;;-149.71;90.22
53916;BME280;39827;49.652;18.770;2023-06-05T21:53:01;73767.38;;;-149.71;90.28
53916;BME280;39827;49.652;18.770;2023-06-05T21:55:27;73765.38;;;-149.71;90.99
53916;BME280;39827;49.652;18.770;2023-06-05T21:57:54;73757.34;;;-149.71;91.10
53916;BME280;39827;49.652;18.770;2023-06-05T22:00:19;73753.31;;;-149.71;91.47
53916;BME280;39827;49.652;18.770;2023-06-05T22:02:47;73743.28;;;-149.71;91.15
53916;BME280;39827;49.652;18.770;2023-06-05T22:05:12;73751.31;;;-149.71;91.04
53916;BME280;39827;49.652;18.770;2023-06-05T22:07:39;73755.34;;;-149.71;91.47
53916;BME280;39827;49.652;18.770;2023-06-05T22:10:06;73763.38;;;-149.71;91.92
53916;BME280;39827;49.652;18.770;2023-06-05T22:12:32;73757.34;;;-149.71;91.43
53916;BME280;39827;49.652;18.770;2023-06-05T22:15:02;73741.28;;;-149.71;91.87
53916;BME280;39827;49.652;18.770;2023-06-05T22:17:28;73729.22;;;-149.71;91.26
53916;BME280;39827;49.652;18.770;2023-06-05T22:19:54;73721.19;;;-149.71;91.15
53916;BME280;39827;49.652;18.770;2023-06-05T22:22:22;73727.22;;;-149.71;91.76
53916;BME280;39827;49.652;18.770;2023-06-05T22:24:47;73721.19;;;-149.71;91.78
53916;BME280;39827;49.652;18.770;2023-06-05T22:27:13;73725.22;;;-149.71;91.65
53916;BME280;39827;49.652;18.770;2023-06-05T22:29:39;73725.22;;;-149.71;91.83
53916;BME280;39827;49.652;18.770;2023-06-05T22:32:05;73719.19;;;-149.71;91.94
53916;BME280;39827;49.652;18.770;2023-06-05T22:34:30;73721.19;;;-149.71;91.71
53916;BME280;39827;49.652;18.770;2023-06-05T22:36:57;73719.19;;;-149.71;91.45
53916;BME280;39827;49.652;18.770;2023-06-05T22:39:29;73733.25;;;-149.71;91.89
53916;BME280;39827;49.652;18.770;2023-06-05T22:41:54;73757.34;;;-149.71;92.72
53916;BME280;39827;49.652;18.770;2023-06-05T22:44:22;73763.38;;;-149.71;92.41
53916;BME280;39827;49.652;18.770;2023-06-05T22:46:50;73737.25;;;-149.71;92.12
53916;BME280;39827;49.652;18.770;2023-06-05T22:49:18;73735.25;;;-149.71;91.97
53916;BME280;39827;49.652;18.770;2023-06-05T22:51:43;73727.22;;;-149.71;92.26
53916;BME280;39827;49.652;18.770;2023-06-05T22:54:08;73739.28;;;-149.71;92.25
53916;BME280;39827;49.652;18.770;2023-06-05T22:56:34;73737.25;;;-149.71;92.34
53916;BME280;39827;49.652;18.770;2023-06-05T22:58:59;73737.25;;;-149.71;92.41
53916;BME280;39827;49.652;18.770;2023-06-05T23:01:25;73741.28;;;-149.71;92.56
53916;BME280;39827;49.652;18.770;2023-06-05T23:03:50;73755.34;;;-149.71;92.94
53916;BME280;39827;49.652;18.770;2023-06-05T23:06:16;73763.38;;;-149.71;93.32